Time;durP1;ratioP1;P1;durP2;ratioP2;P2;SDS_P1;SDS_P2;PMS_P1;PMS_P2;Temp;Humidity;BMP_temperature;BMP_pressure;BME280_temperature;BME280_humidity;BME280_pressure;Samples;Min_cycle;Max_cycle;Signal;HPM_P1;HPM_P2
2021/08/03 00:01:32;;;;;;;0.10;0.10;;;;;;;28.92;31.57;98496.22;5032509;28;20034;-72
2021/08/03 00:04:09;;;;;;;0.52;0.43;;;;;;;28.93;29.99;98497.00;5032606;28;20025;-74
2021/08/03 00:06:40;;;;;;;0.38;0.38;;;;;;;28.87;29.04;98498.66;5033085;28;20025;-73
2021/08/03 00:09:05;;;;;;;5.68;0.35;;;;;;;28.84;26.66;98497.50;5032418;28;20033;-73
2021/08/03 00:11:31;;;;;;;0.35;0.35;;;;;;;28.86;26.50;98499.84;5032416;28;20030;-73
2021/08/03 00:14:02;;;;;;;0.22;0.22;;;;;;;28.87;25.47;98493.94;5031959;28;20089;-74
2021/08/03 00:16:34;;;;;;;1.23;0.60;;;;;;;28.87;25.63;98499.44;5032318;28;20044;-73
2021/08/03 00:18:59;;;;;;;0.50;0.50;;;;;;;28.92;24.70;98500.94;5031857;28;20048;-73
2021/08/03 00:21:25;;;;;;;2.95;2.05;;;;;;;28.95;24.67;98502.84;5032078;28;20465;-76
2021/08/03 00:23:52;;;;;;;0.30;0.30;;;;;;;28.97;24.67;98497.72;5030845;28;20029;-73
2021/08/03 00:26:17;;;;;;;0.10;0.10;;;;;;;29.02;24.57;98499.25;5031754;28;20053;-73
2021/08/03 00:28:49;;;;;;;0.50;0.50;;;;;;;29.03;24.12;98496.06;5031987;28;20025;-72
2021/08/03 00:31:24;;;;;;;2.42;1.77;;;;;;;29.03;24.24;98496.06;5031337;28;20044;-70
2021/08/03 00:33:55;;;;;;;0.30;0.30;;;;;;;29.08;24.80;98500.34;5032418;28;20056;-69
2021/08/03 00:36:24;;;;;;;0.20;0.20;;;;;;;29.10;24.60;98495.22;5031930;28;20057;-68
2021/08/03 00:38:52;;;;;;;0.70;0.70;;;;;;;29.08;24.69;98501.09;5032125;28;20507;-69
2021/08/03 00:41:24;;;;;;;0.73;0.73;;;;;;;29.07;24.70;98505.03;5032182;28;20033;-66
2021/08/03 00:43:49;;;;;;;0.55;0.55;;;;;;;29.05;24.88;98490.16;5031615;28;20064;-68
2021/08/03 00:46:15;;;;;;;0.28;0.28;;;;;;;29.06;25.04;98509.03;5031568;28;20101;-68
2021/08/03 00:48:40;;;;;;;0.10;0.10;;;;;;;29.05;24.77;98493.69;5031477;28;20112;-67
2021/08/03 00:51:06;;;;;;;0.10;0.10;;;;;;;29.05;24.89;98490.94;5031434;28;20386;-69
2021/08/03 00:53:31;;;;;;;0.60;0.60;;;;;;;29.01;24.74;98492.94;5031850;28;20468;-69
2021/08/03 00:55:59;;;;;;;0.30;0.30;;;;;;;29.06;25.00;98494.47;5032109;28;20033;-70
2021/08/03 00:58:25;;;;;;;0.10;0.10;;;;;;;29.06;24.92;98491.72;5031347;28;20033;-70
2021/08/03 01:00:53;;;;;;;0.90;0.90;;;;;;;29.07;24.75;98496.03;5031489;28;20457;-70
2021/08/03 01:03:19;;;;;;;1.13;0.55;;;;;;;29.07;24.85;98498.78;5031515;28;20463;-69
2021/08/03 01:06:19;;;;;;;0.00;0.00;;;;;;;29.07;25.12;98504.28;5031154;28;20505;-74
2021/08/03 01:08:44;;;;;;;1.27;1.20;;;;;;;29.06;24.98;98506.28;5030234;28;20021;-72
2021/08/03 01:11:21;;;;;;;0.10;0.10;;;;;;;29.06;25.36;98514.53;5030981;28;20033;-71
2021/08/03 01:14:04;;;;;;;0.65;0.45;;;;;;;29.06;25.34;98508.22;5031775;28;20079;-77
2021/08/03 01:16:36;;;;;;;1.42;1.40;;;;;;;29.00;25.32;98507.94;5031340;28;20489;-74
2021/08/03 01:19:11;;;;;;;0.50;0.50;;;;;;;29.01;24.92;98511.44;5030827;28;20525;-77
2021/08/03 01:21:43;;;;;;;0.00;0.00;;;;;;;28.98;25.36;98506.75;5029974;28;20091;-76
2021/08/03 01:24:43;;;;;;;0.30;0.30;;;;;;;28.95;25.51;98516.63;5029881;28;20562;-76
2021/08/03 01:27:46;;;;;;;0.17;0.17;;;;;;;28.88;25.38;98519.47;5029756;28;20053;-76
2021/08/03 01:30:11;;;;;;;1.65;1.17;;;;;;;28.82;25.82;98521.13;5029455;28;20477;-78
2021/08/03 01:32:42;;;;;;;0.85;0.85;;;;;;;28.78;25.79;98529.41;5029463;28;20167;-75
2021/08/03 01:35:08;;;;;;;0.13;0.13;;;;;;;28.74;25.79;98526.72;5030330;28;20108;-75
2021/08/03 01:37:34;;;;;;;0.50;0.50;;;;;;;28.68;26.13;98524.81;5030861;28;20180;-77
2021/08/03 01:40:05;;;;;;;0.82;0.82;;;;;;;28.66;26.16;98516.19;5029560;28;20030;-82
2021/08/03 01:42:31;;;;;;;0.28;0.28;;;;;;;28.63;26.14;98519.75;5029183;28;20036;-82
2021/08/03 01:44:59;;;;;;;0.17;0.17;;;;;;;28.60;26.49;98508.38;5030013;28;20413;-82
2021/08/03 01:47:27;;;;;;;0.08;0.08;;;;;;;28.55;26.49;98508.06;5029196;28;20030;-76
2021/08/03 01:49:52;;;;;;;;;;;;;;;28.52;26.66;98512.41;5030345;28;20033;-77
2021/08/03 01:52:20;;;;;;;0.00;0.00;;;;;;;28.44;26.69;98506.22;5030537;28;19920;-77
2021/08/03 01:54:48;;;;;;;0.22;0.22;;;;;;;28.43;27.00;98514.88;5029871;28;20079;-80
2021/08/03 01:57:15;;;;;;;0.20;0.20;;;;;;;28.36;26.73;98506.72;5029533;28;20030;-80
2021/08/03 01:59:44;;;;;;;0.17;0.17;;;;;;;28.32;26.93;98515.00;5029827;28;20033;-82
2021/08/03 02:02:10;;;;;;;0.17;0.17;;;;;;;28.24;26.71;98510.75;5028833;28;20030;-79
2021/08/03 02:04:38;;;;;;;0.05;0.05;;;;;;;28.16;27.55;98521.06;5029687;28;20501;-80
2021/08/03 02:07:04;;;;;;;;;;;;;;;28.12;27.26;98523.03;5030250;28;20091;-81
2021/08/03 02:09:32;;;;;;;1.45;1.05;;;;;;;28.03;27.66;98528.97;5029176;28;19976;-74
2021/08/03 02:11:58;;;;;;;0.00;0.00;;;;;;;27.96;27.42;98527.09;5029673;28;20025;-84
2021/08/03 02:14:23;;;;;;;0.90;0.80;;;;;;;27.90;27.61;98528.69;5029387;28;20223;-85
2021/08/03 02:16:49;;;;;;;0.10;0.10;;;;;;;27.84;27.52;98533.06;5029238;28;20034;-83
2021/08/03 02:19:15;;;;;;;0.00;0.00;;;;;;;27.79;27.82;98528.81;5028727;28;20038;-83
2021/08/03 02:21:45;;;;;;;0.35;0.35;;;;;;;27.74;27.90;98534.72;5029506;28;20085;-83
2021/08/03 02:24:11;;;;;;;0.00;0.00;;;;;;;27.69;28.06;98539.88;5029312;28;20033;-82
2021/08/03 02:26:36;;;;;;;0.30;0.30;;;;;;;27.67;28.25;98542.25;5029280;28;20504;-82
2021/08/03 02:29:03;;;;;;;0.00;0.00;;;;;;;27.61;28.37;98542.69;5029424;28;20052;-83
2021/08/03 02:31:37;;;;;;;0.00;0.00;;;;;;;27.55;28.49;98547.03;5028396;28;20026;-83
2021/08/03 02:34:12;;;;;;;0.00;0.00;;;;;;;27.54;28.54;98555.66;5029171;28;20029;-77
2021/08/03 02:36:43;;;;;;;0.00;0.00;;;;;;;27.46;28.56;98550.22;5030937;28;20033;-75
2021/08/03 02:39:10;;;;;;;0.00;0.00;;;;;;;27.43;28.80;98547.53;5030662;28;20048;-74
2021/08/03 02:41:36;;;;;;;0.10;0.10;;;;;;;27.42;29.09;98559.69;5030218;28;20033;-74
2021/08/03 02:44:03;;;;;;;0.55;0.32;;;;;;;27.39;28.93;98549.47;5030271;28;20061;-77
2021/08/03 02:46:29;;;;;;;0.15;0.15;;;;;;;27.37;29.21;98549.06;5031496;28;20485;-78
2021/08/03 02:49:16;;;;;;;0.30;0.20;;;;;;;27.32;29.14;98550.31;5034166;28;20029;-74
2021/08/03 02:51:42;;;;;;;9.35;1.85;;;;;;;27.31;29.42;98555.00;5034191;28;20018;-72
2021/08/03 02:54:25;;;;;;;0.20;0.20;;;;;;;27.29;29.33;98559.31;5032774;28;20086;-72
2021/08/03 02:56:53;;;;;;;0.00;0.00;;;;;;;27.25;29.53;98561.31;5033785;28;20104;-76
2021/08/03 02:59:20;;;;;;;;;;;;;;;27.25;29.59;98558.56;5034276;28;20026;-74
2021/08/03 03:01:46;;;;;;;0.20;0.20;;;;;;;27.21;29.79;98564.09;5033600;28;19909;-72
2021/08/03 03:04:20;;;;;;;0.10;0.10;;;;;;;27.18;29.91;98575.84;5033753;28;20437;-73
2021/08/03 03:06:52;;;;;;;0.10;0.10;;;;;;;27.14;29.86;98570.38;5033134;28;20029;-73
2021/08/03 03:09:21;;;;;;;0.00;0.00;;;;;;;27.11;30.23;98570.38;5033217;28;20167;-73
2021/08/03 03:11:50;;;;;;;0.15;0.15;;;;;;;27.10;30.46;98568.81;5033665;28;20087;-74
2021/08/03 03:14:15;;;;;;;0.00;0.00;;;;;;;27.07;30.60;98575.91;5033352;28;20051;-74
2021/08/03 03:16:42;;;;;;;0.28;0.20;;;;;;;27.04;30.99;98581.41;5032425;28;20461;-74
2021/08/03 03:19:08;;;;;;;0.38;0.38;;;;;;;27.02;31.08;98589.28;5033125;28;20025;-71
2021/08/03 03:21:35;;;;;;;0.00;0.00;;;;;;;27.01;31.06;98588.47;5033093;28;20039;-71
2021/08/03 03:24:02;;;;;;;0.47;0.30;;;;;;;26.99;31.30;98591.63;5033642;28;20541;-71
2021/08/03 03:26:31;;;;;;;0.10;0.10;;;;;;;26.97;31.64;98591.22;5033372;28;20050;-72
2021/08/03 03:29:00;;;;;;;0.77;0.20;;;;;;;26.97;32.58;98593.97;5033452;28;20428;-77
2021/08/03 03:31:28;;;;;;;0.75;0.32;;;;;;;27.05;32.49;98593.94;5031198;28;20671;-81
2021/08/03 03:33:56;;;;;;;1.20;1.15;;;;;;;27.12;32.51;98602.16;5031026;28;20025;-78
2021/08/03 03:36:25;;;;;;;0.80;0.80;;;;;;;27.24;32.89;98606.41;5031674;28;20033;-78
2021/08/03 03:38:52;;;;;;;0.08;0.08;;;;;;;27.42;32.88;98601.63;5032177;28;20040;-82
2021/08/03 03:41:17;;;;;;;0.52;0.52;;;;;;;27.58;33.03;98609.38;5031603;28;20472;-82
2021/08/03 03:43:42;;;;;;;0.82;0.73;;;;;;;27.76;33.07;98603.03;5031761;28;20109;-72
2021/08/03 03:46:16;;;;;;;0.00;0.00;;;;;;;28.02;33.00;98615.38;5032894;28;20057;-75
2021/08/03 03:48:55;;;;;;;0.43;0.43;;;;;;;28.13;32.76;98604.31;5032903;28;20728;-74
2021/08/03 03:51:25;;;;;;;0.38;0.38;;;;;;;28.39;32.60;98605.66;5033111;28;20056;-76
2021/08/03 03:53:58;;;;;;;0.40;0.40;;;;;;;28.70;32.46;98610.50;5032715;28;20032;-76
2021/08/03 03:56:28;;;;;;;0.10;0.10;;;;;;;29.04;32.22;98609.69;5032772;28;20504;-71
2021/08/03 03:59:02;;;;;;;0.25;0.25;;;;;;;29.34;31.77;98611.72;5032304;28;20037;-79
2021/08/03 04:01:28;;;;;;;2.20;0.50;;;;;;;29.69;31.30;98614.38;5012829;28;20120;-76
2021/08/03 04:03:56;;;;;;;0.13;0.13;;;;;;;30.19;30.89;98612.84;5011723;28;20525;-75
2021/08/03 04:06:22;;;;;;;2.08;1.45;;;;;;;30.49;30.28;98627.69;5012365;28;20037;-77
2021/08/03 04:08:48;;;;;;;2.15;0.47;;;;;;;30.94;29.56;98621.72;5030203;28;20026;-79
2021/08/03 04:11:16;;;;;;;0.20;0.20;;;;;;;31.50;29.05;98625.75;5033027;28;20034;-82
2021/08/03 04:13:52;;;;;;;0.10;0.10;;;;;;;32.01;28.28;98630.91;5033203;28;20508;-70
2021/08/03 04:16:19;;;;;;;0.10;0.10;;;;;;;32.50;27.74;98634.88;5022730;28;20180;-71
2021/08/03 04:18:44;;;;;;;0.10;0.10;;;;;;;32.91;27.04;98636.19;5025932;28;20030;-70
2021/08/03 04:21:10;;;;;;;0.30;0.22;;;;;;;33.37;26.51;98638.84;5024049;28;20026;-72
2021/08/03 04:23:35;;;;;;;0.05;0.05;;;;;;;33.81;26.36;98639.09;5019556;28;20030;-70
2021/08/03 04:26:01;;;;;;;0.15;0.15;;;;;;;34.30;25.49;98640.69;5013472;28;20053;-71
2021/08/03 04:28:27;;;;;;;0.30;0.30;;;;;;;34.81;25.13;98644.53;5019407;28;20065;-73
2021/08/03 04:30:53;;;;;;;0.20;0.20;;;;;;;35.29;24.28;98657.50;5028264;28;20404;-72
2021/08/03 04:33:19;;;;;;;0.10;0.10;;;;;;;35.61;24.19;98658.31;5033153;28;20115;-72
2021/08/03 04:35:44;;;;;;;0.00;0.00;;;;;;;35.89;23.86;98660.00;5030581;28;20036;-71
2021/08/03 04:38:10;;;;;;;1.00;0.52;;;;;;;36.03;24.28;98671.78;5032071;28;20029;-71
2021/08/03 04:40:35;;;;;;;0.17;0.17;;;;;;;36.31;23.42;98674.63;5032002;28;20448;-71
2021/08/03 04:43:01;;;;;;;0.08;0.08;;;;;;;36.60;23.70;98674.22;5032200;28;20033;-71
2021/08/03 04:45:26;;;;;;;1.45;0.85;;;;;;;36.82;23.25;98670.50;5031369;28;20057;-71
2021/08/03 04:47:53;;;;;;;0.00;0.00;;;;;;;37.00;22.87;98662.16;5031837;28;20029;-71
2021/08/03 04:50:25;;;;;;;0.10;0.10;;;;;;;37.25;22.60;98676.19;5031746;28;20030;-71
2021/08/03 04:52:55;;;;;;;0.10;0.10;;;;;;;37.46;22.57;98668.88;5031886;28;20029;-71
2021/08/03 04:55:20;;;;;;;0.73;0.73;;;;;;;37.82;21.92;98678.34;5031646;28;20083;-71
2021/08/03 04:57:46;;;;;;;0.10;0.10;;;;;;;37.96;21.78;98674.13;5031775;28;20485;-71
2021/08/03 05:00:14;;;;;;;0.08;0.08;;;;;;;38.03;21.89;98675.78;5031663;28;20033;-70
2021/08/03 05:02:41;;;;;;;1.45;1.00;;;;;;;38.34;21.54;98672.66;5031463;28;20029;-71
2021/08/03 05:05:08;;;;;;;0.73;0.73;;;;;;;38.61;21.50;98679.28;5031687;28;20033;-71
2021/08/03 05:07:34;;;;;;;0.63;0.63;;;;;;;38.94;20.74;98672.06;5031150;28;20072;-71
2021/08/03 05:10:10;;;;;;;0.20;0.20;;;;;;;39.27;21.11;98687.91;5030905;28;20033;-71
2021/08/03 05:12:37;;;;;;;0.33;0.33;;;;;;;39.30;20.71;98682.13;5031460;28;20505;-72
2021/08/03 05:15:04;;;;;;;0.38;0.38;;;;;;;39.53;20.85;98674.84;5031491;28;20083;-71
2021/08/03 05:17:31;;;;;;;0.00;0.00;;;;;;;39.64;20.53;98684.69;5031258;28;20477;-71
2021/08/03 05:19:57;;;;;;;0.10;0.10;;;;;;;40.20;19.63;98695.97;5031486;28;20065;-72
2021/08/03 05:22:24;;;;;;;0.10;0.10;;;;;;;40.41;20.14;98702.34;5030908;28;20065;-72
2021/08/03 05:24:49;;;;;;;0.38;0.38;;;;;;;40.75;19.43;98699.97;5031242;28;20033;-74
2021/08/03 05:27:15;;;;;;;2.63;1.17;;;;;;;41.11;18.97;98714.66;5031293;28;20028;-73
2021/08/03 05:29:40;;;;;;;0.10;0.10;;;;;;;41.20;19.00;98710.91;5030938;28;20091;-73
2021/08/03 05:32:06;;;;;;;0.10;0.10;;;;;;;41.52;18.95;98715.75;5031284;28;20055;-73
2021/08/03 05:34:31;;;;;;;0.85;0.85;;;;;;;41.80;18.74;98715.22;5030764;28;20481;-73
2021/08/03 05:36:56;;;;;;;0.05;0.05;;;;;;;42.04;18.22;98714.88;5031209;28;20481;-73
2021/08/03 05:39:22;;;;;;;0.15;0.15;;;;;;;41.92;18.52;98709.22;5031229;28;20033;-73
2021/08/03 05:41:47;;;;;;;0.10;0.10;;;;;;;42.16;18.22;98715.72;5030890;28;20018;-73
2021/08/03 05:44:13;;;;;;;0.40;0.40;;;;;;;42.38;18.02;98709.47;5030816;28;20031;-74
2021/08/03 05:46:38;;;;;;;0.10;0.10;;;;;;;42.66;17.50;98717.22;5030565;28;20030;-74
2021/08/03 05:49:04;;;;;;;0.15;0.15;;;;;;;42.70;17.84;98723.38;5030720;28;20029;-75
2021/08/03 05:51:29;;;;;;;0.25;0.25;;;;;;;43.03;17.19;98711.47;5030816;28;20038;-74
2021/08/03 05:53:55;;;;;;;0.20;0.20;;;;;;;43.16;17.39;98719.44;5031042;28;20022;-75
2021/08/03 05:56:20;;;;;;;0.00;0.00;;;;;;;43.48;17.21;98722.03;5031121;28;20037;-75
2021/08/03 05:58:45;;;;;;;0.13;0.13;;;;;;;43.74;16.21;98718.19;5029767;28;20627;-74
2021/08/03 06:01:11;;;;;;;0.10;0.10;;;;;;;43.96;16.23;98725.09;5030721;28;20385;-74
2021/08/03 06:03:36;;;;;;;0.65;0.65;;;;;;;44.09;16.46;98721.72;5030783;28;20036;-74
2021/08/03 06:06:05;;;;;;;0.10;0.10;;;;;;;44.45;15.88;98725.44;5029642;28;20425;-74
2021/08/03 06:08:32;;;;;;;0.45;0.45;;;;;;;44.85;15.70;98730.16;5030561;28;20396;-73
2021/08/03 06:10:58;;;;;;;;;;;;;;;44.82;15.94;98726.31;5030509;28;20048;-72
2021/08/03 06:13:26;;;;;;;0.17;0.17;;;;;;;44.72;16.15;98720.19;5030089;28;19920;-71
2021/08/03 06:15:53;;;;;;;0.22;0.22;;;;;;;43.83;16.84;98706.63;5030640;28;20042;-83
2021/08/03 06:18:28;;;;;;;0.68;0.68;;;;;;;42.74;17.53;98712.69;5030754;28;20401;-80
2021/08/03 06:20:54;;;;;;;0.13;0.13;;;;;;;42.15;18.20;98714.97;5029644;28;20087;-82
2021/08/03 06:23:20;;;;;;;0.20;0.20;;;;;;;41.51;18.77;98719.88;5033241;28;20036;-82
2021/08/03 06:25:47;;;;;;;0.20;0.20;;;;;;;40.95;19.21;98720.81;5033032;28;20053;-82
2021/08/03 06:28:15;;;;;;;0.10;0.10;;;;;;;40.46;19.74;98729.66;5033553;28;20025;-82
2021/08/03 06:30:41;;;;;;;0.03;0.03;;;;;;;39.94;20.43;98726.63;5033290;28;20268;-82
2021/08/03 06:33:07;;;;;;;0.10;0.10;;;;;;;39.59;20.45;98719.72;5033914;28;20041;-83
2021/08/03 06:35:33;;;;;;;0.70;0.30;;;;;;;39.29;21.17;98725.31;5033438;28;20025;-82
2021/08/03 06:37:59;;;;;;;0.10;0.10;;;;;;;39.12;21.30;98727.78;5033822;28;20040;-82
2021/08/03 06:40:26;;;;;;;0.20;0.20;;;;;;;38.90;21.78;98728.94;5033909;28;20053;-82
2021/08/03 06:42:54;;;;;;;;;;;;;;;38.75;22.28;98730.88;5034993;28;20087;-81
2021/08/03 06:45:24;;;;;;;0.08;0.08;;;;;;;38.63;22.38;98729.88;5033221;28;20359;-82
2021/08/03 06:48:11;;;;;;;0.03;0.03;;;;;;;38.33;22.73;98732.56;5033156;28;20030;-82
2021/08/03 06:51:00;;;;;;;0.17;0.17;;;;;;;38.06;23.12;98741.81;5032674;28;20163;-81
2021/08/03 06:53:29;;;;;;;0.63;0.63;;;;;;;37.93;23.65;98737.22;5032876;28;20028;-81
2021/08/03 06:55:56;;;;;;;0.20;0.20;;;;;;;37.67;24.26;98741.66;5032843;28;20127;-83
2021/08/03 06:58:35;;;;;;;0.10;0.10;;;;;;;37.31;24.74;98733.63;5033987;28;20025;-82
2021/08/03 07:01:03;;;;;;;0.10;0.10;;;;;;;37.05;25.11;98741.59;5032896;28;20029;-82
2021/08/03 07:03:36;;;;;;;0.40;0.40;;;;;;;36.96;25.41;98739.56;5032541;28;20370;-82
2021/08/03 07:06:02;;;;;;;0.20;0.20;;;;;;;36.73;25.58;98732.56;5032762;28;20048;-82
2021/08/03 07:08:32;;;;;;;0.32;0.32;;;;;;;36.45;26.16;98735.31;5032361;28;20030;-84
2021/08/03 07:10:58;;;;;;;0.20;0.20;;;;;;;36.09;25.90;98745.09;5032731;28;20049;-83
2021/08/03 07:13:24;;;;;;;0.17;0.17;;;;;;;35.87;26.05;98747.91;5032444;28;20570;-83
2021/08/03 07:15:51;;;;;;;0.10;0.10;;;;;;;35.77;26.71;98740.72;5032512;28;20040;-82
2021/08/03 07:18:22;;;;;;;0.10;0.10;;;;;;;35.58;27.34;98747.00;5032434;28;20029;-82
2021/08/03 07:20:49;;;;;;;0.10;0.10;;;;;;;35.53;26.78;98749.59;5033511;28;20045;-82
2021/08/03 07:23:16;;;;;;;;;;;;;;;35.48;27.09;98750.19;5032846;28;20052;-83
2021/08/03 07:25:42;;;;;;;0.10;0.10;;;;;;;35.47;26.56;98743.81;5033526;28;20000;-84
2021/08/03 07:28:07;;;;;;;0.40;0.40;;;;;;;35.50;26.69;98736.56;5032287;28;20120;-83
2021/08/03 07:30:34;;;;;;;0.10;0.10;;;;;;;35.48;26.26;98739.81;5032219;28;20032;-82
2021/08/03 07:32:59;;;;;;;0.10;0.10;;;;;;;35.52;26.51;98731.34;5031394;28;20400;-83
2021/08/03 07:35:25;;;;;;;0.10;0.10;;;;;;;35.55;26.27;98734.00;5033324;28;20280;-83
2021/08/03 07:37:50;;;;;;;0.20;0.20;;;;;;;35.54;26.00;98740.00;5032656;28;20547;-82
2021/08/03 07:40:16;;;;;;;0.10;0.10;;;;;;;35.46;26.32;98742.25;5032272;28;20517;-83
2021/08/03 07:42:41;;;;;;;0.00;0.00;;;;;;;35.47;26.35;98743.06;5031995;28;20493;-83
2021/08/03 07:45:07;;;;;;;0.00;0.00;;;;;;;35.39;25.96;98748.13;5031873;28;20033;-83
2021/08/03 07:47:33;;;;;;;0.10;0.10;;;;;;;35.38;25.84;98749.34;5033556;28;20029;-83
2021/08/03 07:49:58;;;;;;;0.40;0.40;;;;;;;35.36;26.55;98752.53;5032342;28;20393;-83
2021/08/03 07:52:25;;;;;;;0.10;0.10;;;;;;;35.37;26.62;98750.53;5032396;28;20030;-83
2021/08/03 07:54:50;;;;;;;0.20;0.20;;;;;;;35.39;25.93;98754.44;5031707;28;20087;-83
2021/08/03 07:57:15;;;;;;;0.08;0.08;;;;;;;35.44;25.79;98753.09;5031994;28;20435;-84
2021/08/03 07:59:41;;;;;;;0.10;0.10;;;;;;;35.48;25.53;98745.38;5033073;28;20026;-83
2021/08/03 08:02:07;;;;;;;0.93;0.80;;;;;;;35.53;25.48;98755.13;5031895;28;20554;-83
2021/08/03 08:04:32;;;;;;;0.10;0.10;;;;;;;35.54;25.72;98751.13;5031669;28;20032;-83
2021/08/03 08:06:57;;;;;;;0.30;0.30;;;;;;;35.60;25.17;98763.22;5032064;28;20384;-83
2021/08/03 08:09:23;;;;;;;0.00;0.00;;;;;;;35.65;25.48;98753.53;5031571;28;20484;-83
2021/08/03 08:11:48;;;;;;;0.10;0.10;;;;;;;35.67;25.54;98751.03;5031409;28;20036;-84
2021/08/03 08:14:14;;;;;;;4.88;0.25;;;;;;;35.64;25.13;98757.53;5031602;28;20485;-83
2021/08/03 08:16:39;;;;;;;0.10;0.10;;;;;;;35.62;25.31;98759.97;5031349;28;20120;-82
2021/08/03 08:19:05;;;;;;;0.80;0.80;;;;;;;35.62;25.09;98762.75;5031498;28;20055;-84
2021/08/03 08:21:33;;;;;;;0.43;0.43;;;;;;;35.51;24.84;98758.38;5030976;28;20029;-83
2021/08/03 08:24:03;;;;;;;0.35;0.35;;;;;;;35.53;25.12;98758.69;5031331;28;20021;-83
2021/08/03 08:26:29;;;;;;;0.10;0.10;;;;;;;35.51;25.40;98755.59;5031991;28;20080;-84
2021/08/03 08:28:54;;;;;;;2.35;0.30;;;;;;;35.57;25.21;98759.34;5030963;28;20057;-83
2021/08/03 08:31:20;;;;;;;0.52;0.52;;;;;;;35.50;25.08;98758.81;5031438;28;20026;-84
2021/08/03 08:33:45;;;;;;;0.00;0.00;;;;;;;35.42;25.18;98764.66;5030978;28;20027;-83
2021/08/03 08:36:11;;;;;;;0.30;0.30;;;;;;;35.38;25.26;98757.69;5031096;28;20497;-84
2021/08/03 08:38:36;;;;;;;0.00;0.00;;;;;;;35.38;25.27;98757.69;5030767;28;20025;-84
2021/08/03 08:41:02;;;;;;;0.22;0.22;;;;;;;35.31;25.15;98747.56;5032081;28;20063;-84
2021/08/03 08:43:28;;;;;;;0.10;0.10;;;;;;;35.29;24.78;98746.47;5031129;28;20427;-84
2021/08/03 08:45:55;;;;;;;0.63;0.63;;;;;;;35.25;25.17;98750.16;5030396;28;20037;-84
2021/08/03 08:48:21;;;;;;;0.20;0.20;;;;;;;35.32;25.55;98742.78;5030627;28;20026;-85
2021/08/03 08:50:51;;;;;;;0.10;0.10;;;;;;;35.42;25.24;98744.41;5030759;28;20485;-85
2021/08/03 08:53:18;;;;;;;0.08;0.08;;;;;;;35.33;25.56;98734.00;5030871;28;20041;-85
2021/08/03 08:55:43;;;;;;;0.20;0.20;;;;;;;35.44;25.19;98750.31;5030242;28;20029;-84
2021/08/03 08:58:09;;;;;;;0.52;0.52;;;;;;;35.46;25.14;98741.50;5030581;28;20040;-84
2021/08/03 09:00:34;;;;;;;0.38;0.38;;;;;;;35.49;24.55;98735.06;5030436;28;20420;-86
2021/08/03 09:03:00;;;;;;;0.10;0.10;;;;;;;35.51;24.41;98738.13;5030465;28;20500;-84
2021/08/03 09:05:31;;;;;;;0.10;0.10;;;;;;;35.54;24.00;98737.22;5030609;28;20124;-86
2021/08/03 09:07:59;;;;;;;0.03;0.03;;;;;;;35.54;23.97;98740.78;5030588;28;20033;-87
2021/08/03 09:10:32;;;;;;;0.60;0.60;;;;;;;35.53;23.93;98736.44;5030480;28;20025;-84
2021/08/03 09:13:01;;;;;;;0.15;0.15;;;;;;;35.56;23.77;98735.53;5030602;28;20029;-85
2021/08/03 09:15:27;;;;;;;0.20;0.20;;;;;;;35.53;23.21;98728.09;5030241;28;20405;-84
2021/08/03 09:17:52;;;;;;;0.40;0.40;;;;;;;35.51;23.32;98729.78;5030141;28;20033;-84
2021/08/03 09:20:18;;;;;;;0.22;0.22;;;;;;;35.42;22.61;98733.28;5030257;28;20026;-87
2021/08/03 09:22:48;;;;;;;0.05;0.05;;;;;;;35.42;22.84;98738.84;5029869;28;20034;-84
2021/08/03 09:25:17;;;;;;;0.95;0.63;;;;;;;35.41;23.03;98729.75;5030036;28;20049;-83
2021/08/03 09:27:48;;;;;;;0.10;0.10;;;;;;;35.35;22.88;98734.31;5029887;28;20021;-84
2021/08/03 09:30:16;;;;;;;0.68;0.68;;;;;;;35.36;23.19;98735.84;5030058;28;20025;-84
2021/08/03 09:32:42;;;;;;;0.20;0.20;;;;;;;35.37;22.59;98744.97;5030158;28;20022;-84
2021/08/03 09:35:16;;;;;;;6.20;0.63;;;;;;;35.33;21.98;98722.88;5030302;28;20048;-84
2021/08/03 09:37:43;;;;;;;0.30;0.30;;;;;;;35.32;22.42;98721.31;5029956;28;20216;-84
2021/08/03 09:40:30;;;;;;;0.00;0.00;;;;;;;35.39;22.26;98732.19;5029999;28;20061;-84
2021/08/03 09:43:13;;;;;;;0.20;0.20;;;;;;;35.45;22.78;98724.06;5029902;28;20033;-83
2021/08/03 09:45:41;;;;;;;2.83;1.30;;;;;;;35.51;23.25;98727.00;5029823;28;20035;-84
2021/08/03 09:48:21;;;;;;;0.20;0.20;;;;;;;35.61;23.36;98731.41;5029918;28;20077;-84
2021/08/03 09:50:57;;;;;;;0.00;0.00;;;;;;;35.69;22.95;98720.78;5029822;28;20037;-86
2021/08/03 09:53:35;;;;;;;0.43;0.43;;;;;;;35.71;23.04;98732.22;5029862;28;20032;-84
2021/08/03 09:56:01;;;;;;;0.10;0.10;;;;;;;35.79;22.19;98736.28;5031976;28;20575;-84
2021/08/03 09:58:27;;;;;;;0.30;0.30;;;;;;;35.80;21.49;98715.56;5036592;28;20188;-85
2021/08/03 10:00:53;;;;;;;0.10;0.10;;;;;;;35.86;21.85;98736.00;5036150;28;20040;-85
2021/08/03 10:03:18;;;;;;;0.00;0.00;;;;;;;35.92;21.14;98725.06;5036603;28;20033;-84
2021/08/03 10:05:45;;;;;;;0.20;0.20;;;;;;;36.00;20.51;98722.78;5036086;28;20026;-85
2021/08/03 10:08:11;;;;;;;0.15;0.15;;;;;;;36.05;20.55;98722.97;5036095;28;20456;-84
2021/08/03 10:10:37;;;;;;;0.20;0.20;;;;;;;36.07;20.93;98719.72;5036046;28;20191;-84
2021/08/03 10:13:04;;;;;;;0.00;0.00;;;;;;;36.12;21.76;98713.56;5036191;28;20491;-84
2021/08/03 10:15:29;;;;;;;;;;;;;;;36.17;21.48;98712.16;5036729;28;20626;-84
2021/08/03 10:17:55;;;;;;;0.60;0.45;;;;;;;36.20;20.53;98703.66;5037478;28;19917;-84
2021/08/03 10:20:20;;;;;;;0.15;0.15;;;;;;;36.13;21.16;98703.97;5036352;28;20025;-83
2021/08/03 10:22:58;;;;;;;0.20;0.20;;;;;;;36.19;22.07;98712.47;5036098;28;20029;-84
2021/08/03 10:25:31;;;;;;;0.28;0.28;;;;;;;36.19;21.12;98702.16;5035896;28;20053;-85
2021/08/03 10:27:57;;;;;;;0.32;0.32;;;;;;;36.17;20.35;98701.81;5035735;28;20484;-83
2021/08/03 10:30:28;;;;;;;1.45;1.10;;;;;;;36.19;19.53;98691.00;5036033;28;20087;-84
2021/08/03 10:32:59;;;;;;;0.10;0.10;;;;;;;36.22;20.06;98704.00;5035943;28;20033;-84
2021/08/03 10:35:46;;;;;;;0.52;0.47;;;;;;;36.29;19.82;98694.59;5037336;28;20424;-83
2021/08/03 10:38:28;;;;;;;0.10;0.10;;;;;;;36.35;19.40;98701.09;5036182;28;20041;-83
2021/08/03 10:40:57;;;;;;;0.20;0.20;;;;;;;36.40;19.96;98691.34;5035888;28;20403;-84
2021/08/03 10:43:34;;;;;;;0.30;0.20;;;;;;;36.48;18.91;98684.25;5036017;28;20032;-83
2021/08/03 10:46:06;;;;;;;0.75;0.75;;;;;;;36.54;19.13;98679.63;5036093;28;20030;-84
2021/08/03 10:48:37;;;;;;;0.50;0.50;;;;;;;36.57;19.66;98683.47;5036837;28;20052;-84
2021/08/03 10:51:25;;;;;;;0.17;0.17;;;;;;;36.59;20.05;98677.47;5036143;28;20520;-84
2021/08/03 10:54:11;;;;;;;0.03;0.03;;;;;;;36.53;19.33;98664.16;5026008;28;20041;-83
2021/08/03 10:56:58;;;;;;;0.10;0.10;;;;;;;36.53;19.40;98658.56;5036028;28;20029;-85
2021/08/03 10:59:36;;;;;;;0.60;0.20;;;;;;;36.51;19.73;98666.63;5036144;28;20045;-85
2021/08/03 11:02:06;;;;;;;0.20;0.20;;;;;;;36.58;19.45;98667.56;5035769;28;20029;-83
2021/08/03 11:04:41;;;;;;;0.10;0.10;;;;;;;36.61;19.17;98681.34;5037283;28;20041;-84
2021/08/03 11:07:34;;;;;;;0.10;0.10;;;;;;;36.57;19.39;98677.91;5035261;28;20124;-83
2021/08/03 11:10:02;;;;;;;0.10;0.10;;;;;;;36.49;19.13;98665.56;5029659;28;20037;-84
2021/08/03 11:12:44;;;;;;;0.00;0.00;;;;;;;36.54;18.43;98662.16;5032633;28;20021;-85
2021/08/03 11:15:22;;;;;;;0.70;0.70;;;;;;;36.54;18.41;98667.72;5032563;28;20037;-82
2021/08/03 11:18:04;;;;;;;0.10;0.10;;;;;;;36.60;17.63;98670.66;5032330;28;20033;-83
2021/08/03 11:20:35;;;;;;;0.10;0.10;;;;;;;36.63;16.37;98653.78;5032455;28;20061;-84
2021/08/03 11:23:07;;;;;;;0.22;0.22;;;;;;;36.60;17.03;98657.50;5032220;28;20061;-82
2021/08/03 11:25:33;;;;;;;0.30;0.30;;;;;;;36.66;16.59;98658.44;5032072;28;20057;-82
2021/08/03 11:28:20;;;;;;;0.00;0.00;;;;;;;36.72;15.49;98653.03;5032014;28;20025;-81
2021/08/03 11:30:47;;;;;;;;;;;;;;;36.84;15.32;98654.06;5032385;28;20456;-84
2021/08/03 11:33:14;;;;;;;0.10;0.10;;;;;;;36.91;15.43;98653.03;5032179;28;19955;-84
2021/08/03 11:35:41;;;;;;;0.10;0.10;;;;;;;36.99;15.41;98638.31;5032806;28;20484;-84
2021/08/03 11:38:09;;;;;;;0.10;0.10;;;;;;;37.04;16.09;98645.25;5032188;28;20400;-83
2021/08/03 11:40:35;;;;;;;0.03;0.03;;;;;;;37.15;16.08;98645.53;5033334;28;20077;-83
2021/08/03 11:43:03;;;;;;;0.10;0.10;;;;;;;37.25;15.85;98637.16;5031964;28;20034;-83
2021/08/03 11:45:28;;;;;;;;;;;;;;;37.30;15.02;98639.31;5032314;28;20485;-84